Time;durP1;ratioP1;P1;durP2;ratioP2;P2;SDS_P1;SDS_P2;PMS_P1;PMS_P2;Temp;Humidity;BMP_temperature;BMP_pressure;BME280_temperature;BME280_humidity;BME280_pressure;Samples;Min_cycle;Max_cycle;Signal;HPM_P1;HPM_P2
2021/11/28 00:00:48;;;;;;;3.70;3.40;;;;;18.10;98311.00;;;;2078277;28;20383;-45
2021/11/28 00:01:52;;;;;;;3.23;2.93;;;;;18.10;98303.00;;;;2079695;28;20803;-44
2021/11/28 00:02:53;;;;;;;3.03;2.72;;;;;18.10;98313.00;;;;2079548;28;20225;-45
2021/11/28 00:03:54;;;;;;;3.03;2.83;;;;;18.10;98308.00;;;;2079768;28;20704;-44
2021/11/28 00:04:54;;;;;;;3.20;2.90;;;;;18.10;98310.00;;;;2072330;28;20540;-44
2021/11/28 00:06:07;;;;;;;3.30;3.00;;;;;18.10;98307.00;;;;2075276;28;20488;-44
2021/11/28 00:09:36;;;;;;;2.92;2.72;;;;;18.10;98312.00;;;;2073411;28;20247;-47
2021/11/28 00:10:47;;;;;;;3.55;2.80;;;;;18.00;98315.00;;;;2074263;28;20217;-44
2021/11/28 00:12:08;;;;;;;3.50;3.10;;;;;18.10;98318.00;;;;2071106;28;20700;-45
2021/11/28 00:13:10;;;;;;;3.38;2.97;;;;;18.10;98312.00;;;;2077687;28;20220;-44
2021/11/28 00:14:13;;;;;;;3.65;3.35;;;;;18.10;98310.00;;;;2078153;28;20220;-45
2021/11/28 00:15:17;;;;;;;3.20;2.95;;;;;18.10;98313.00;;;;2078740;28;20202;-45
2021/11/28 00:16:18;;;;;;;3.40;3.10;;;;;18.10;98317.00;;;;2076989;28;20225;-46
2021/11/28 00:17:18;;;;;;;3.13;2.83;;;;;18.00;98319.00;;;;2070237;28;20269;-44
2021/11/28 00:18:19;;;;;;;3.00;2.80;;;;;18.10;98314.00;;;;2070804;28;21346;-45
2021/11/28 00:19:19;;;;;;;2.97;2.77;;;;;18.00;98271.00;;;;2070707;28;20721;-44
2021/11/28 00:20:20;;;;;;;3.20;2.90;;;;;18.10;98311.00;;;;2074139;28;20595;-44
2021/11/28 00:21:20;;;;;;;3.00;2.73;;;;;18.00;98313.00;;;;2072940;28;20641;-48
2021/11/28 00:22:22;;;;;;;3.37;3.07;;;;;18.10;98306.00;;;;2075995;28;20982;-45
2021/11/28 00:23:22;;;;;;;3.30;3.00;;;;;18.00;98312.00;;;;2077708;28;20221;-45
2021/11/28 00:24:23;;;;;;;3.20;2.90;;;;;18.00;98309.00;;;;2077940;28;20918;-43
2021/11/28 00:25:25;;;;;;;3.17;2.87;;;;;18.00;98309.00;;;;2079356;28;20323;-45
2021/11/28 00:26:26;;;;;;;2.80;2.60;;;;;18.00;98309.00;;;;2079259;28;20404;-48
2021/11/28 00:27:26;;;;;;;3.20;2.87;;;;;18.00;98320.00;;;;2079451;28;20233;-45
2021/11/28 00:28:27;;;;;;;2.70;2.50;;;;;18.00;98308.00;;;;2073133;28;20225;-44
2021/11/28 00:29:27;;;;;;;4.00;3.17;;;;;18.00;98307.00;;;;2071251;28;20217;-45
2021/11/28 00:30:28;;;;;;;2.87;2.67;;;;;18.00;98310.00;;;;2070343;28;20229;-45
2021/11/28 00:31:28;;;;;;;3.43;3.07;;;;;18.00;98317.00;;;;2075977;28;20308;-49
2021/11/28 00:32:28;;;;;;;3.30;3.00;;;;;18.00;98314.00;;;;2079178;28;20226;-48
2021/11/28 00:33:29;;;;;;;2.90;2.70;;;;;18.00;98315.00;;;;2079487;28;20557;-48
2021/11/28 00:34:30;;;;;;;3.27;2.93;;;;;18.00;98310.00;;;;2079337;28;20225;-44
2021/11/28 00:35:30;;;;;;;3.10;2.40;;;;;18.00;98312.00;;;;2078617;28;20456;-47
2021/11/28 00:36:31;;;;;;;3.30;3.00;;;;;18.00;98314.00;;;;2078227;28;20307;-46
2021/11/28 00:37:31;;;;;;;2.60;2.40;;;;;18.00;98319.00;;;;2071091;28;20218;-45
2021/11/28 00:38:34;;;;;;;2.90;2.70;;;;;18.00;98317.00;;;;2070383;28;20218;-47
2021/11/28 00:39:34;;;;;;;3.13;2.83;;;;;18.00;98321.00;;;;2070483;28;20213;-44
2021/11/28 00:40:34;;;;;;;3.00;2.80;;;;;18.00;98313.00;;;;2061187;28;20222;-47
2021/11/28 00:41:35;;;;;;;2.80;2.60;;;;;18.00;98312.00;;;;2069903;28;20217;-46
2021/11/28 00:42:35;;;;;;;3.30;3.03;;;;;18.00;98316.00;;;;2071648;28;20420;-45
2021/11/28 00:43:36;;;;;;;2.70;2.50;;;;;18.00;98310.00;;;;2079251;28;20297;-45
2021/11/28 00:44:36;;;;;;;2.67;2.47;;;;;18.00;98313.00;;;;2078856;28;20213;-44
2021/11/28 00:45:37;;;;;;;3.10;2.90;;;;;18.00;98320.00;;;;2076724;28;20800;-44
2021/11/28 00:46:37;;;;;;;3.33;3.03;;;;;18.00;98314.00;;;;2069785;28;20210;-46
2021/11/28 00:47:37;;;;;;;2.90;2.70;;;;;18.00;98314.00;;;;2070995;28;20297;-48
2021/11/28 00:48:42;;;;;;;3.27;2.97;;;;;18.00;98308.00;;;;2075753;28;20689;-45
2021/11/28 00:50:45;;;;;;;3.30;3.00;;;;;18.00;98314.00;;;;2079010;28;20705;-46
2021/11/28 00:52:18;;;;;;;3.30;3.00;;;;;18.00;98311.00;;;;2078573;28;20209;-45
2021/11/28 00:53:19;;;;;;;3.00;2.60;;;;;18.00;98320.00;;;;2078415;28;20304;-45
2021/11/28 00:54:20;;;;;;;3.00;2.60;;;;;18.00;98319.00;;;;2078400;28;20343;-45
2021/11/28 00:55:23;;;;;;;2.40;2.20;;;;;18.00;98318.00;;;;2079048;28;20484;-45
2021/11/28 00:56:25;;;;;;;2.80;2.50;;;;;18.00;98319.00;;;;2070409;28;20214;-45
2021/11/28 00:57:27;;;;;;;3.35;2.97;;;;;18.00;98324.00;;;;2070707;28;20210;-45
2021/11/28 00:58:27;;;;;;;3.28;2.83;;;;;18.00;98326.00;;;;2078557;28;20591;-44
2021/11/28 00:59:28;;;;;;;2.97;2.77;;;;;18.00;98327.00;;;;2075617;28;20220;-46
2021/11/28 01:00:28;;;;;;;2.70;2.50;;;;;18.00;98320.00;;;;2078253;28;20225;-46
2021/11/28 01:01:29;;;;;;;3.70;3.30;;;;;18.00;98317.00;;;;2079165;28;20457;-45
2021/11/28 01:02:29;;;;;;;2.80;2.60;;;;;18.00;98329.00;;;;2071247;28;20933;-44
2021/11/28 01:03:30;;;;;;;3.10;2.60;;;;;18.00;98312.00;;;;2069595;28;20218;-45
2021/11/28 01:04:30;;;;;;;2.60;2.40;;;;;18.00;98330.00;;;;2070909;28;20238;-46
2021/11/28 01:05:31;;;;;;;2.97;2.73;;;;;18.00;98322.00;;;;2071106;28;20299;-45
2021/11/28 01:06:32;;;;;;;3.78;2.63;;;;;18.00;98324.00;;;;2074408;28;20867;-46
2021/11/28 01:07:32;;;;;;;2.53;2.33;;;;;18.00;98324.00;;;;2077532;28;20229;-45
2021/11/28 01:08:33;;;;;;;2.80;2.60;;;;;18.00;98325.00;;;;2078862;28;20279;-44
2021/11/28 01:09:33;;;;;;;2.63;2.43;;;;;18.00;98330.00;;;;2078902;28;20216;-45
2021/11/28 01:10:34;;;;;;;2.83;2.60;;;;;18.00;98323.00;;;;2078130;28;20673;-45
2021/11/28 01:11:35;;;;;;;2.65;2.45;;;;;18.00;98330.00;;;;2078199;28;20213;-46
2021/11/28 01:12:35;;;;;;;2.70;2.50;;;;;18.00;98335.00;;;;2075098;28;20221;-45
2021/11/28 01:13:35;;;;;;;2.57;2.37;;;;;18.00;98329.00;;;;2072926;28;20209;-45
2021/11/28 01:14:36;;;;;;;2.80;2.60;;;;;18.00;98338.00;;;;2084718;28;20291;-46
2021/11/28 01:15:36;;;;;;;2.73;2.53;;;;;18.00;98337.00;;;;2082330;28;20216;-46
2021/11/28 01:16:37;;;;;;;3.00;2.80;;;;;18.00;98333.00;;;;2079260;28;20763;-47
2021/11/28 01:17:38;;;;;;;3.30;2.83;;;;;18.00;98343.00;;;;2072404;28;20214;-46
2021/11/28 01:18:38;;;;;;;3.37;2.97;;;;;18.00;98332.00;;;;2070735;28;20221;-43
2021/11/28 01:19:39;;;;;;;2.70;2.50;;;;;17.90;98333.00;;;;2070804;28;20887;-46
2021/11/28 01:20:39;;;;;;;3.90;3.10;;;;;17.90;98340.00;;;;2069927;28;20297;-45
2021/11/28 01:21:54;;;;;;;2.93;2.73;;;;;18.00;98336.00;;;;2070758;28;20210;-45
2021/11/28 01:22:54;;;;;;;2.70;2.50;;;;;17.90;98335.00;;;;2070635;28;20573;-43
2021/11/28 01:23:55;;;;;;;2.37;2.17;;;;;18.00;98339.00;;;;2070612;28;20217;-45
2021/11/28 01:24:55;;;;;;;2.87;2.67;;;;;17.90;98332.00;;;;2071049;28;20644;-46
2021/11/28 01:25:55;;;;;;;3.20;2.67;;;;;18.00;98347.00;;;;2076901;28;20740;-45
2021/11/28 01:26:56;;;;;;;2.47;2.27;;;;;18.00;98341.00;;;;2079029;28;20578;-44
2021/11/28 01:27:56;;;;;;;3.10;2.80;;;;;18.00;98346.00;;;;2078741;28;20229;-45
2021/11/28 01:28:56;;;;;;;3.20;2.70;;;;;17.90;98347.00;;;;2074049;28;20230;-44
2021/11/28 01:29:57;;;;;;;2.97;2.67;;;;;17.90;98348.00;;;;2070227;28;20242;-44
2021/11/28 01:30:58;;;;;;;3.83;2.83;;;;;17.90;98348.00;;;;2069958;28;20218;-45
2021/11/28 01:32:01;;;;;;;2.80;2.50;;;;;17.90;98353.00;;;;2070820;28;20449;-45
2021/11/28 01:33:02;;;;;;;2.70;2.50;;;;;17.90;98348.00;;;;2070661;28;20241;-48
2021/11/28 01:34:03;;;;;;;2.40;2.20;;;;;18.00;98350.00;;;;2069452;28;20225;-45
2021/11/28 01:35:04;;;;;;;2.90;2.60;;;;;18.00;98350.00;;;;2070482;28;20589;-45
2021/11/28 01:36:05;;;;;;;2.30;2.10;;;;;17.90;98349.00;;;;2075134;28;20293;-45
2021/11/28 01:37:05;;;;;;;2.63;2.43;;;;;17.90;98348.00;;;;2076220;28;20236;-44
2021/11/28 01:38:05;;;;;;;2.50;2.30;;;;;17.90;98306.00;;;;2078822;28;20214;-46
2021/11/28 01:39:07;;;;;;;2.80;2.30;;;;;17.90;98355.00;;;;2078809;28;20209;-45
2021/11/28 01:40:10;;;;;;;2.80;2.40;;;;;18.00;98357.00;;;;2078892;28;20244;-46
2021/11/28 01:41:11;;;;;;;3.58;3.17;;;;;18.00;98350.00;;;;2077318;28;20209;-45
2021/11/28 01:42:12;;;;;;;2.67;2.47;;;;;17.70;98355.00;;;;2078686;28;20251;-45
2021/11/28 01:43:13;;;;;;;2.60;2.40;;;;;18.00;98344.00;;;;2071092;28;20340;-45
2021/11/28 01:44:13;;;;;;;2.50;2.30;;;;;17.60;98338.00;;;;2078626;28;20217;-46
2021/11/28 01:45:19;;;;;;;2.20;2.00;;;;;17.90;98356.00;;;;2077245;28;20230;-46
2021/11/28 01:46:20;;;;;;;2.55;2.35;;;;;18.00;98357.00;;;;2078829;28;20225;-46
2021/11/28 01:47:20;;;;;;;2.83;2.53;;;;;18.00;98350.00;;;;2078279;28;20295;-45
2021/11/28 01:48:21;;;;;;;2.50;2.30;;;;;17.90;98361.00;;;;2078128;28;20498;-46
2021/11/28 01:49:21;;;;;;;2.63;2.43;;;;;17.90;98341.00;;;;2077340;28;20226;-46
2021/11/28 01:50:25;;;;;;;3.10;2.65;;;;;17.90;98343.00;;;;2076798;28;20228;-45
2021/11/28 01:51:25;;;;;;;3.15;2.85;;;;;18.00;98348.00;;;;2077862;28;20213;-46
2021/11/28 01:52:25;;;;;;;2.70;2.50;;;;;17.90;98342.00;;;;2077069;28;20244;-46
2021/11/28 01:53:27;;;;;;;2.43;2.23;;;;;17.90;98346.00;;;;2078049;28;20210;-45
2021/11/28 01:54:28;;;;;;;2.88;2.50;;;;;17.90;98339.00;;;;2077534;28;20692;-46
2021/11/28 01:55:29;;;;;;;2.53;2.33;;;;;17.90;98347.00;;;;2078244;28;20297;-46
2021/11/28 01:56:29;;;;;;;2.55;2.35;;;;;17.90;98347.00;;;;2072557;28;20210;-46
2021/11/28 01:57:30;;;;;;;2.70;2.50;;;;;17.90;98346.00;;;;2070119;28;20210;-46
2021/11/28 01:58:30;;;;;;;2.83;2.63;;;;;17.90;98339.00;;;;2070107;28;20415;-46
2021/11/28 01:59:31;;;;;;;2.93;2.10;;;;;17.90;98345.00;;;;2070203;28;20323;-46
2021/11/28 02:00:51;;;;;;;2.43;2.23;;;;;17.90;98341.00;;;;2073481;28;20327;-45
2021/11/28 02:01:52;;;;;;;3.08;2.78;;;;;17.90;98351.00;;;;2078408;28;20217;-45
2021/11/28 02:02:52;;;;;;;3.23;2.80;;;;;17.90;98349.00;;;;2077360;28;20217;-46
2021/11/28 02:03:52;;;;;;;2.60;2.20;;;;;17.90;98347.00;;;;2078627;28;20272;-46
2021/11/28 02:04:53;;;;;;;3.10;2.80;;;;;17.90;98348.00;;;;2078582;28;20241;-45
2021/11/28 02:05:56;;;;;;;2.87;2.07;;;;;17.90;98351.00;;;;2069920;28;20214;-45
2021/11/28 02:06:57;;;;;;;2.65;2.45;;;;;17.90;98352.00;;;;2069890;28;20613;-46
2021/11/28 02:07:58;;;;;;;2.20;2.00;;;;;17.90;98350.00;;;;2078045;28;20213;-46
2021/11/28 02:08:59;;;;;;;2.90;2.23;;;;;17.90;98344.00;;;;2078681;28;20237;-46
2021/11/28 02:09:59;;;;;;;2.53;2.33;;;;;17.90;98356.00;;;;2077545;28;20595;-45
2021/11/28 02:11:00;;;;;;;2.20;2.07;;;;;17.90;98342.00;;;;2076408;28;20559;-45
2021/11/28 02:12:00;;;;;;;3.87;2.30;;;;;17.90;98346.00;;;;2077779;28;20213;-46
2021/11/28 02:13:01;;;;;;;3.00;2.60;;;;;17.90;98351.00;;;;2069378;28;20235;-46
2021/11/28 02:14:02;;;;;;;2.60;2.40;;;;;17.90;98345.00;;;;2069458;28;20222;-46
2021/11/28 02:15:03;;;;;;;2.78;2.40;;;;;17.90;98348.00;;;;2071152;28;20225;-46
2021/11/28 02:16:04;;;;;;;2.60;2.40;;;;;17.90;98346.00;;;;2069704;28;20217;-46
2021/11/28 02:17:05;;;;;;;2.20;1.90;;;;;17.90;98348.00;;;;2069978;28;20460;-46
2021/11/28 02:18:08;;;;;;;2.30;2.10;;;;;17.90;98339.00;;;;2069495;28;20233;-46
2021/11/28 02:19:08;;;;;;;2.60;2.40;;;;;17.90;98343.00;;;;2066157;28;20254;-46
2021/11/28 02:20:09;;;;;;;3.20;2.90;;;;;17.90;98345.00;;;;2069968;28;20210;-46
2021/11/28 02:21:10;;;;;;;2.53;2.33;;;;;17.90;98346.00;;;;2068125;28;20214;-46
2021/11/28 02:22:13;;;;;;;2.70;2.50;;;;;17.90;98337.00;;;;2068292;28;20210;-46
2021/11/28 02:23:13;;;;;;;2.42;2.22;;;;;17.90;98341.00;;;;2067770;28;20465;-46
2021/11/28 02:24:14;;;;;;;2.30;2.10;;;;;17.90;98344.00;;;;2069158;28;20222;-46
2021/11/28 02:25:14;;;;;;;2.60;2.40;;;;;17.90;98342.00;;;;2070039;28;20214;-46
2021/11/28 02:26:17;;;;;;;2.70;2.50;;;;;17.90;98339.00;;;;2070503;28;20301;-46
2021/11/28 02:27:18;;;;;;;2.55;2.28;;;;;17.90;98343.00;;;;2069360;28;20803;-45
2021/11/28 02:28:18;;;;;;;2.70;2.27;;;;;17.90;98341.00;;;;2068978;28;20218;-45
2021/11/28 02:29:19;;;;;;;2.77;2.40;;;;;17.90;98352.00;;;;2064605;28;20483;-46
2021/11/28 02:30:20;;;;;;;2.43;2.23;;;;;17.90;98342.00;;;;2074668;28;20205;-46
2021/11/28 02:31:20;;;;;;;3.03;2.57;;;;;17.90;98348.00;;;;2073466;28;20268;-46
2021/11/28 02:32:20;;;;;;;2.40;2.20;;;;;17.90;98354.00;;;;2069563;28;20469;-45
2021/11/28 02:33:21;;;;;;;2.47;2.27;;;;;17.90;98341.00;;;;2069706;28;20728;-46
2021/11/28 02:34:21;;;;;;;2.50;2.30;;;;;17.90;98340.00;;;;2069286;28;20780;-46
2021/11/28 02:35:22;;;;;;;2.50;2.30;;;;;17.90;98348.00;;;;2069309;28;20235;-46
2021/11/28 02:36:22;;;;;;;2.43;2.20;;;;;17.90;98344.00;;;;2070245;28;20218;-46
2021/11/28 02:37:24;;;;;;;2.57;2.37;;;;;17.90;98343.00;;;;2072275;28;20310;-45
2021/11/28 02:38:25;;;;;;;2.22;2.00;;;;;17.90;98342.00;;;;2076702;28;20682;-43
2021/11/28 02:39:25;;;;;;;2.40;2.20;;;;;17.90;98351.00;;;;2076441;28;20218;-46
2021/11/28 02:40:26;;;;;;;2.93;2.70;;;;;17.90;98350.00;;;;2077550;28;20209;-46
2021/11/28 02:41:26;;;;;;;2.70;2.10;;;;;17.90;98347.00;;;;2078482;28;20697;-45
2021/11/28 02:42:27;;;;;;;2.40;2.10;;;;;17.90;98339.00;;;;2078518;28;20225;-45
2021/11/28 02:43:29;;;;;;;2.23;2.03;;;;;17.90;98343.00;;;;2075550;28;20463;-45
2021/11/28 02:44:32;;;;;;;2.17;2.08;;;;;17.90;98347.00;;;;2078032;28;20308;-45
2021/11/28 02:45:33;;;;;;;2.58;2.33;;;;;17.90;98339.00;;;;2078563;28;20584;-46
2021/11/28 02:46:34;;;;;;;2.30;2.10;;;;;17.90;98351.00;;;;2077112;28;20217;-48
2021/11/28 02:47:34;;;;;;;2.50;2.10;;;;;17.80;98342.00;;;;2069390;28;20229;-45
2021/11/28 02:48:35;;;;;;;2.23;2.03;;;;;17.90;98359.00;;;;2070386;28;20883;-45
2021/11/28 02:49:35;;;;;;;2.60;2.40;;;;;17.90;98347.00;;;;2070199;28;20649;-44
2021/11/28 02:50:35;;;;;;;3.13;2.20;;;;;17.80;98355.00;;;;2069329;28;20214;-47
2021/11/28 02:51:36;;;;;;;2.67;2.20;;;;;17.80;98357.00;;;;2070279;28;20241;-46
2021/11/28 02:52:37;;;;;;;2.37;2.17;;;;;17.90;98350.00;;;;2070456;28;20230;-43
2021/11/28 02:53:37;;;;;;;2.53;2.10;;;;;17.90;98354.00;;;;2069988;28;20218;-43
2021/11/28 02:54:38;;;;;;;2.83;2.57;;;;;17.80;98346.00;;;;2070170;28;20226;-48
2021/11/28 02:55:40;;;;;;;2.40;2.20;;;;;17.80;98357.00;;;;2070447;28;25601;-45
2021/11/28 02:56:42;;;;;;;2.40;2.28;;;;;17.90;98345.00;;;;2072213;28;20223;-46
2021/11/28 02:57:42;;;;;;;2.60;2.40;;;;;17.80;98353.00;;;;2077750;28;20260;-45
2021/11/28 02:58:43;;;;;;;2.80;2.60;;;;;17.90;98351.00;;;;2069630;28;20213;-46
2021/11/28 02:59:43;;;;;;;2.13;1.93;;;;;17.80;98345.00;;;;2077657;28;20229;-45
2021/11/28 03:00:50;;;;;;;2.83;2.20;;;;;17.90;98354.00;;;;2077495;28;20225;-44
2021/11/28 03:01:50;;;;;;;2.13;1.98;;;;;17.80;98351.00;;;;2077420;28;20213;-45
2021/11/28 03:02:52;;;;;;;3.00;2.57;;;;;17.80;98343.00;;;;2077606;28;20209;-45
2021/11/28 03:03:53;;;;;;;2.97;2.70;;;;;17.80;98350.00;;;;2078009;28;20220;-48
2021/11/28 03:04:54;;;;;;;2.90;2.60;;;;;17.80;98344.00;;;;2076613;28;20787;-43
2021/11/28 03:05:54;;;;;;;2.60;2.40;;;;;17.80;98340.00;;;;2079426;28;20483;-44
2021/11/28 03:06:55;;;;;;;2.33;2.13;;;;;17.90;98349.00;;;;2080108;28;20216;-46
2021/11/28 03:07:55;;;;;;;2.30;2.10;;;;;17.80;98349.00;;;;2080019;28;20213;-45
2021/11/28 03:08:55;;;;;;;2.57;2.37;;;;;17.80;98347.00;;;;2080009;28;20567;-45
2021/11/28 03:09:56;;;;;;;2.70;2.30;;;;;17.80;98344.00;;;;2078663;28;20224;-44
2021/11/28 03:10:56;;;;;;;2.20;2.00;;;;;17.80;98353.00;;;;2070073;28;20587;-44
2021/11/28 03:11:57;;;;;;;2.43;2.23;;;;;17.80;98354.00;;;;2087407;28;20562;-46
2021/11/28 03:12:58;;;;;;;1.87;1.77;;;;;17.80;98344.00;;;;2082933;28;20268;-45
2021/11/28 03:13:58;;;;;;;2.28;2.08;;;;;17.80;98350.00;;;;2079699;28;20296;-43
2021/11/28 03:14:59;;;;;;;2.40;2.20;;;;;17.80;98352.00;;;;2079774;28;20228;-47
2021/11/28 03:16:01;;;;;;;2.73;2.20;;;;;17.80;98351.00;;;;2072037;28;20205;-45
2021/11/28 03:17:03;;;;;;;2.40;2.20;;;;;17.80;98354.00;;;;2073574;28;20240;-45
2021/11/28 03:18:09;;;;;;;2.30;2.10;;;;;17.80;98356.00;;;;2087369;28;20213;-47
2021/11/28 03:19:10;;;;;;;2.72;2.53;;;;;17.80;98354.00;;;;2078653;28;20285;-44
2021/11/28 03:20:10;;;;;;;2.43;2.20;;;;;17.80;98362.00;;;;2075035;28;20228;-44
2021/11/28 03:21:25;;;;;;;2.27;2.07;;;;;17.90;98362.00;;;;2078459;28;20719;-44
2021/11/28 03:22:25;;;;;;;2.50;2.30;;;;;17.80;98360.00;;;;2078873;28;20216;-47
2021/11/28 03:23:28;;;;;;;2.40;2.20;;;;;17.80;98368.00;;;;2079267;28;20214;-45
2021/11/28 03:24:29;;;;;;;2.22;2.00;;;;;17.80;98362.00;;;;2079158;28;20217;-46
2021/11/28 03:25:30;;;;;;;2.17;2.07;;;;;17.80;98367.00;;;;2079080;28;20221;-45
2021/11/28 03:26:35;;;;;;;2.55;2.35;;;;;17.80;98366.00;;;;2078403;28;20685;-44
2021/11/28 03:27:35;;;;;;;2.05;1.95;;;;;17.80;98366.00;;;;2071815;28;20289;-44
2021/11/28 03:28:37;;;;;;;2.60;2.40;;;;;17.80;98372.00;;;;2071552;28;20726;-44
2021/11/28 03:29:37;;;;;;;2.67;2.47;;;;;17.80;98306.00;;;;2069863;28;20233;-44
2021/11/28 03:30:38;;;;;;;2.30;2.10;;;;;17.80;98373.00;;;;2069669;28;20563;-47
2021/11/28 03:31:40;;;;;;;2.03;1.93;;;;;17.80;98364.00;;;;2073328;28;20553;-46
2021/11/28 03:32:41;;;;;;;2.70;2.40;;;;;17.80;98378.00;;;;2079596;28;20245;-45
2021/11/28 03:33:41;;;;;;;3.30;2.60;;;;;17.80;98371.00;;;;2079236;28;20218;-46
2021/11/28 03:34:41;;;;;;;2.60;2.40;;;;;17.80;98370.00;;;;2078630;28;20221;-44
2021/11/28 03:35:42;;;;;;;2.27;2.07;;;;;17.80;98373.00;;;;2077762;28;20237;-45
2021/11/28 03:37:01;;;;;;;2.70;2.50;;;;;17.80;98369.00;;;;2073385;28;20500;-48
2021/11/28 03:38:02;;;;;;;2.20;1.98;;;;;17.80;98364.00;;;;2078060;28;20245;-46
2021/11/28 03:39:05;;;;;;;1.90;1.77;;;;;17.80;98362.00;;;;2078575;28;20229;-45
2021/11/28 03:40:06;;;;;;;2.30;2.10;;;;;17.80;98371.00;;;;2078216;28;20267;-43
2021/11/28 03:41:07;;;;;;;2.13;1.90;;;;;17.80;98367.00;;;;2077450;28;20275;-45
2021/11/28 03:42:07;;;;;;;2.30;2.10;;;;;17.80;98370.00;;;;2076223;28;20286;-43
2021/11/28 03:43:08;;;;;;;2.07;1.87;;;;;17.80;98377.00;;;;2078857;28;20393;-45
2021/11/28 03:44:09;;;;;;;2.30;2.10;;;;;17.80;98375.00;;;;2079172;28;20300;-43
2021/11/28 03:45:11;;;;;;;2.70;2.50;;;;;17.80;98375.00;;;;2072725;28;20465;-45
2021/11/28 03:46:12;;;;;;;2.30;2.10;;;;;17.80;98379.00;;;;2071089;28;20257;-45
2021/11/28 03:47:12;;;;;;;2.53;2.33;;;;;17.80;98375.00;;;;2078262;28;20221;-44
2021/11/28 03:48:13;;;;;;;2.57;2.20;;;;;17.80;98377.00;;;;2075699;28;20218;-47
2021/11/28 03:49:13;;;;;;;2.10;1.90;;;;;17.80;98378.00;;;;2077284;28;20685;-46
2021/11/28 03:50:13;;;;;;;2.20;2.00;;;;;17.80;98384.00;;;;2077699;28;20264;-44
2021/11/28 03:51:14;;;;;;;1.80;1.70;;;;;17.70;98380.00;;;;2076280;28;20279;-45
2021/11/28 03:52:15;;;;;;;2.08;1.88;;;;;17.80;98375.00;;;;2070522;28;20264;-45
2021/11/28 03:53:15;;;;;;;2.20;2.00;;;;;17.80;98384.00;;;;2075659;28;20214;-47
2021/11/28 03:54:15;;;;;;;2.10;1.90;;;;;17.80;98378.00;;;;2078804;28;20388;-45
2021/11/28 03:55:17;;;;;;;1.90;1.80;;;;;17.80;98383.00;;;;2078463;28;20214;-45
2021/11/28 03:56:17;;;;;;;2.50;2.30;;;;;17.80;98383.00;;;;2079750;28;20243;-44
2021/11/28 03:57:17;;;;;;;2.03;1.87;;;;;17.80;98383.00;;;;2079663;28;20221;-46
2021/11/28 03:58:18;;;;;;;2.37;2.17;;;;;17.80;98379.00;;;;2078986;28;20297;-46
2021/11/28 03:59:18;;;;;;;2.20;2.00;;;;;17.80;98384.00;;;;2079387;28;20212;-45
2021/11/28 04:00:18;;;;;;;2.10;2.00;;;;;17.80;98385.00;;;;2078549;28;20704;-45
2021/11/28 04:01:19;;;;;;;2.17;1.97;;;;;17.80;98382.00;;;;2077111;28;20231;-44
2021/11/28 04:02:20;;;;;;;2.40;2.20;;;;;17.80;98390.00;;;;2070166;28;20317;-45
2021/11/28 04:03:21;;;;;;;2.03;1.83;;;;;17.80;98393.00;;;;2069142;28;20210;-45
2021/11/28 04:04:21;;;;;;;2.33;2.10;;;;;17.80;98387.00;;;;2070085;28;20527;-45
2021/11/28 04:05:21;;;;;;;2.23;2.03;;;;;17.80;98394.00;;;;2070569;28;20222;-45
2021/11/28 04:06:22;;;;;;;2.13;1.93;;;;;17.80;98388.00;;;;2071348;28;20230;-47
2021/11/28 04:07:22;;;;;;;1.90;1.80;;;;;17.70;98395.00;;;;2070990;28;20219;-46
2021/11/28 04:08:23;;;;;;;2.37;2.17;;;;;17.70;98401.00;;;;2071221;28;20272;-47
2021/11/28 04:09:23;;;;;;;2.30;2.10;;;;;17.80;98393.00;;;;2074013;28;20718;-48
2021/11/28 04:10:24;;;;;;;1.93;1.70;;;;;17.80;98398.00;;;;2077917;28;20271;-45
2021/11/28 04:11:24;;;;;;;2.30;2.10;;;;;17.80;98394.00;;;;2079272;28;20221;-46
2021/11/28 04:12:25;;;;;;;2.10;1.90;;;;;17.80;98396.00;;;;2079605;28;20233;-45
2021/11/28 04:13:25;;;;;;;2.37;1.90;;;;;17.80;98391.00;;;;2079538;28;20224;-44
2021/11/28 04:14:26;;;;;;;2.03;1.83;;;;;17.70;98407.00;;;;2079423;28;20228;-44
2021/11/28 04:16:07;;;;;;;2.30;2.07;;;;;17.80;98398.00;;;;2078466;28;20220;-46
2021/11/28 04:17:07;;;;;;;1.88;1.77;;;;;17.80;98394.00;;;;2068250;28;20331;-45
2021/11/28 04:18:08;;;;;;;4.03;2.07;;;;;17.70;98402.00;;;;2073259;28;20851;-44
2021/11/28 04:19:09;;;;;;;1.97;1.77;;;;;17.70;98400.00;;;;2072859;28;20838;-45
2021/11/28 04:20:10;;;;;;;2.40;2.20;;;;;17.70;98402.00;;;;2070692;28;20212;-45
2021/11/28 04:21:10;;;;;;;2.20;2.00;;;;;17.80;98402.00;;;;2069868;28;20685;-44
2021/11/28 04:22:11;;;;;;;2.23;1.80;;;;;17.70;98404.00;;;;2070438;28;20206;-46
2021/11/28 04:23:11;;;;;;;2.30;1.83;;;;;17.80;98405.00;;;;2070507;28;20218;-44
2021/11/28 04:24:12;;;;;;;2.10;1.90;;;;;17.80;98402.00;;;;2070796;28;20222;-44
2021/11/28 04:25:13;;;;;;;1.95;1.85;;;;;17.70;98409.00;;;;2071282;28;20225;-44
2021/11/28 04:26:14;;;;;;;2.20;2.00;;;;;17.70;98402.00;;;;2070649;28;20214;-47
2021/11/28 04:27:14;;;;;;;1.93;1.80;;;;;17.70;98409.00;;;;2070976;28;20725;-45
2021/11/28 04:28:16;;;;;;;2.40;2.20;;;;;17.70;98408.00;;;;2070852;28;20511;-45
2021/11/28 04:29:17;;;;;;;2.33;2.13;;;;;17.70;98409.00;;;;2070007;28;20214;-45
2021/11/28 04:30:18;;;;;;;1.85;1.75;;;;;17.70;98412.00;;;;2069853;28;20744;-45
2021/11/28 04:31:18;;;;;;;2.40;2.20;;;;;17.70;98407.00;;;;2070201;28;20210;-45
2021/11/28 04:32:18;;;;;;;1.77;1.67;;;;;17.70;98408.00;;;;2070192;28;20230;-44
2021/11/28 04:33:21;;;;;;;2.10;1.90;;;;;17.70;98418.00;;;;2076766;28;20317;-44
2021/11/28 04:34:21;;;;;;;2.40;2.20;;;;;17.70;98412.00;;;;2078975;28;20236;-47
2021/11/28 04:35:22;;;;;;;2.17;1.97;;;;;17.80;98409.00;;;;2079360;28;20614;-44
2021/11/28 04:36:22;;;;;;;2.43;2.10;;;;;17.70;98409.00;;;;2079286;28;20217;-46
2021/11/28 04:37:22;;;;;;;2.10;1.93;;;;;17.70;98405.00;;;;2079058;28;20347;-45
2021/11/28 04:38:23;;;;;;;2.03;1.83;;;;;17.70;98420.00;;;;2079418;28;20252;-47
2021/11/28 04:39:23;;;;;;;1.73;1.63;;;;;17.70;98410.00;;;;2079292;28;20232;-47
2021/11/28 04:40:24;;;;;;;1.93;1.73;;;;;17.80;98416.00;;;;2078734;28;20279;-45
2021/11/28 04:41:24;;;;;;;2.10;2.00;;;;;17.70;98407.00;;;;2079040;28;20263;-45
2021/11/28 04:42:27;;;;;;;2.17;1.98;;;;;17.80;98415.00;;;;2073051;28;20214;-45
2021/11/28 04:43:27;;;;;;;2.30;2.10;;;;;17.70;98417.00;;;;2070755;28;20210;-45
2021/11/28 04:44:27;;;;;;;1.93;1.80;;;;;17.70;98413.00;;;;2076284;28;20271;-44
2021/11/28 04:45:28;;;;;;;2.00;1.90;;;;;17.70;98414.00;;;;2078731;28;20584;-46
2021/11/28 04:46:28;;;;;;;2.10;1.93;;;;;17.70;98407.00;;;;2078538;28;20709;-45
2021/11/28 04:47:28;;;;;;;2.10;1.93;;;;;17.70;98417.00;;;;2078366;28;20292;-46
2021/11/28 04:48:29;;;;;;;2.07;1.90;;;;;17.70;98415.00;;;;2077931;28;20221;-45
2021/11/28 04:49:29;;;;;;;2.20;2.00;;;;;17.70;98419.00;;;;2078595;28;20217;-44
2021/11/28 04:50:29;;;;;;;2.13;1.93;;;;;17.70;98413.00;;;;2075063;28;20689;-44
2021/11/28 04:51:30;;;;;;;1.93;1.70;;;;;17.70;98432.00;;;;2077510;28;20738;-44
2021/11/28 04:52:30;;;;;;;2.37;2.17;;;;;17.70;98421.00;;;;2078639;28;20720;-47
2021/11/28 04:53:30;;;;;;;2.20;2.00;;;;;17.70;98430.00;;;;2078441;28;20294;-45
2021/11/28 04:54:31;;;;;;;2.90;2.20;;;;;17.70;98427.00;;;;2070257;28;20264;-44
2021/11/28 04:55:31;;;;;;;2.13;1.93;;;;;17.80;98425.00;;;;2070174;28;20218;-44
2021/11/28 04:56:32;;;;;;;1.90;1.80;;;;;17.80;98427.00;;;;2072034;28;20221;-44
2021/11/28 04:57:33;;;;;;;2.00;1.80;;;;;17.70;98429.00;;;;2077914;28;20222;-44
2021/11/28 04:58:33;;;;;;;2.47;2.00;;;;;17.70;98429.00;;;;2078324;28;20218;-44
2021/11/28 04:59:35;;;;;;;2.10;1.90;;;;;17.70;98429.00;;;;2078523;28;20221;-45
2021/11/28 05:00:37;;;;;;;1.85;1.65;;;;;17.70;98422.00;;;;2072799;28;20237;-47
2021/11/28 05:01:38;;;;;;;2.07;1.87;;;;;17.70;98425.00;;;;2077146;28;20729;-45
2021/11/28 05:02:39;;;;;;;1.73;1.63;;;;;17.70;98432.00;;;;2078208;28;20213;-45
2021/11/28 05:03:39;;;;;;;2.55;1.90;;;;;17.70;98421.00;;;;2078434;28;20763;-43
2021/11/28 05:04:40;;;;;;;2.10;1.90;;;;;17.70;98421.00;;;;2076160;28;20218;-44
2021/11/28 05:05:40;;;;;;;1.80;1.70;;;;;17.70;98421.00;;;;2078131;28;20319;-43
2021/11/28 05:06:40;;;;;;;2.37;1.90;;;;;17.70;98422.00;;;;2069665;28;20226;-44
2021/11/28 05:07:41;;;;;;;1.83;1.73;;;;;17.70;98425.00;;;;2076938;28;20213;-45
2021/11/28 05:08:42;;;;;;;2.07;1.93;;;;;17.70;98419.00;;;;2077509;28;20218;-46
2021/11/28 05:09:42;;;;;;;2.13;1.87;;;;;17.70;98418.00;;;;2077646;28;20228;-45
2021/11/28 05:10:44;;;;;;;2.00;1.70;;;;;17.70;98425.00;;;;2072848;28;20463;-48
2021/11/28 05:11:44;;;;;;;2.38;2.17;;;;;17.70;98429.00;;;;2069851;28;20580;-45